createdAt,value
2023-01-15T00:01:38.226Z,5.90
2023-01-15T00:06:41.998Z,4.67
2023-01-15T00:11:47.022Z,5.70
2023-01-15T00:16:52.882Z,6.10
2023-01-15T00:21:55.253Z,6.00
2023-01-15T00:27:15.954Z,5.23
2023-01-15T00:32:18.246Z,4.97
2023-01-15T00:37:20.523Z,5.83
2023-01-15T00:42:22.875Z,5.57
2023-01-15T00:47:25.263Z,6.23
2023-01-15T00:52:27.564Z,5.90
2023-01-15T00:57:29.882Z,6.07
2023-01-15T01:02:32.330Z,6.47
2023-01-15T01:07:35.692Z,6.57
2023-01-15T01:12:38.969Z,6.17
2023-01-15T01:17:41.540Z,6.70
2023-01-15T01:22:44.484Z,5.57
2023-01-15T01:27:46.873Z,5.83
2023-01-15T01:32:49.311Z,6.53
2023-01-15T01:37:52.382Z,5.87
2023-01-15T01:42:54.672Z,5.60
2023-01-15T01:48:00.982Z,6.67
2023-01-15T01:53:09.277Z,6.67
2023-01-15T01:58:12.934Z,6.47
2023-01-15T02:03:16.030Z,7.97
2023-01-15T02:08:19.093Z,5.63
2023-01-15T02:13:39.254Z,6.33
2023-01-15T02:19:30.578Z,6.43
2023-01-15T02:24:52.468Z,5.60
2023-01-15T02:30:06.990Z,5.63
2023-01-15T02:35:24.887Z,6.57
2023-01-15T02:40:28.908Z,5.80
2023-01-15T02:45:34.108Z,6.77
2023-01-15T02:50:45.990Z,5.20
2023-01-15T02:55:50.207Z,7.03
2023-01-15T03:00:57.480Z,6.80
2023-01-15T03:06:22.405Z,5.50
2023-01-15T03:11:24.969Z,6.97
2023-01-15T03:16:38.362Z,5.82
2023-01-15T03:21:47.075Z,6.40
2023-01-15T03:26:51.015Z,6.63
2023-01-15T03:31:53.451Z,7.83
2023-01-15T03:36:55.757Z,7.23
2023-01-15T03:42:16.651Z,6.00
2023-01-15T03:47:40.131Z,7.50
2023-01-15T03:52:47.069Z,4.90
2023-01-15T03:57:53.296Z,6.13
2023-01-15T04:02:57.102Z,6.87
2023-01-15T04:08:02.183Z,5.90
2023-01-15T04:13:07.001Z,6.40
2023-01-15T04:18:09.312Z,5.00
2023-01-15T04:23:11.941Z,6.70
2023-01-15T04:28:14.262Z,6.73
2023-01-15T04:33:16.613Z,6.63
2023-01-15T04:38:18.877Z,6.43
2023-01-15T04:43:39.784Z,7.13
2023-01-15T04:48:42.849Z,6.53
2023-01-15T04:53:45.111Z,6.23
2023-01-15T04:58:47.407Z,6.97
2023-01-15T05:03:49.753Z,6.63
2023-01-15T05:08:52.874Z,6.80
2023-01-15T05:13:57.976Z,5.70
2023-01-15T05:19:05.032Z,6.13
2023-01-15T05:24:09.149Z,7.23
2023-01-15T05:29:12.294Z,6.70
2023-01-15T05:34:14.809Z,6.30
2023-01-15T05:39:17.424Z,6.27
2023-01-15T05:44:23.791Z,5.93
2023-01-15T05:49:27.954Z,5.93
2023-01-15T05:54:33.991Z,6.50
2023-01-15T05:59:36.203Z,5.90
2023-01-15T06:04:41.525Z,7.17
2023-01-15T06:09:44.086Z,5.33
2023-01-15T06:14:46.423Z,7.17
2023-01-15T06:19:48.785Z,6.93
2023-01-15T06:24:51.099Z,7.03
2023-01-15T06:29:59.255Z,6.57
2023-01-15T06:35:04.744Z,6.53
2023-01-15T06:40:10.108Z,6.17
2023-01-15T06:45:31.308Z,5.67
2023-01-15T06:50:33.609Z,6.30
2023-01-15T06:55:35.966Z,6.50
2023-01-15T07:00:38.777Z,6.87
2023-01-15T07:05:45.958Z,6.23
2023-01-15T07:10:48.415Z,5.93
2023-01-15T07:15:50.733Z,8.67
2023-01-15T07:20:59.599Z,5.87
2023-01-15T07:26:01.904Z,5.97
2023-01-15T07:31:04.220Z,7.77
2023-01-15T07:36:06.766Z,7.43
2023-01-15T07:41:27.400Z,7.93
2023-01-15T07:46:56.333Z,7.00
2023-01-15T07:51:59.058Z,7.73
2023-01-15T07:57:01.452Z,6.27
2023-01-15T08:02:04.311Z,6.87
2023-01-15T08:07:06.912Z,6.23
2023-01-15T08:12:29.016Z,7.47
2023-01-15T08:17:33.903Z,7.40
2023-01-15T08:22:37.501Z,6.63
2023-01-15T08:27:41.083Z,5.97
2023-01-15T08:32:43.808Z,6.80
2023-01-15T08:37:46.163Z,7.10
2023-01-15T08:42:48.433Z,6.07
2023-01-15T08:47:50.649Z,6.70
2023-01-15T08:52:52.924Z,7.17
2023-01-15T08:57:55.232Z,7.57
2023-01-15T09:02:58.170Z,7.77
2023-01-15T09:08:00.589Z,6.63
2023-01-15T09:13:03.860Z,8.57
2023-01-15T09:18:06.274Z,6.90
2023-01-15T09:23:08.571Z,8.10
2023-01-15T09:28:10.943Z,6.97
2023-01-15T09:33:13.277Z,7.17
2023-01-15T09:38:19.449Z,8.77
2023-01-15T09:43:53.655Z,8.00
2023-01-15T09:49:07.900Z,6.90
2023-01-15T09:54:19.145Z,8.43
2023-01-15T09:59:37.416Z,7.43
2023-01-15T10:04:45.994Z,7.70
2023-01-15T10:10:18.044Z,8.20
2023-01-15T10:15:33.546Z,7.90
2023-01-15T10:20:56.139Z,8.93
2023-01-15T10:26:16.806Z,6.80
2023-01-15T10:31:24.819Z,8.43
2023-01-15T10:36:58.963Z,7.77
2023-01-15T10:42:13.068Z,7.73
2023-01-15T10:47:19.739Z,7.43
2023-01-15T10:52:27.651Z,7.27
2023-01-15T10:57:45.418Z,7.33
2023-01-15T11:02:52.191Z,7.23
2023-01-15T11:08:26.428Z,6.40
2023-01-15T11:13:38.544Z,6.97
2023-01-15T11:19:02.739Z,6.80
2023-01-15T11:24:05.436Z,5.93
2023-01-15T11:29:28.852Z,7.37
2023-01-15T11:34:38.987Z,7.33
2023-01-15T11:39:43.366Z,5.77
2023-01-15T11:45:18.088Z,6.30
2023-01-15T11:50:39.687Z,6.20
2023-01-15T11:55:53.930Z,5.60
2023-01-15T12:00:58.570Z,6.17
2023-01-15T12:06:05.749Z,4.83
2023-01-15T12:11:46.575Z,5.77
2023-01-15T12:17:07.861Z,5.93
2023-01-15T12:22:42.366Z,5.63
2023-01-15T12:27:53.415Z,6.10
2023-01-15T12:33:17.143Z,4.50
2023-01-15T12:38:33.524Z,5.73
2023-01-15T12:43:54.263Z,5.40
2023-01-15T12:49:12.290Z,6.47
2023-01-15T12:54:16.721Z,4.93
2023-01-15T12:59:27.103Z,4.87
2023-01-15T13:04:49.399Z,5.00
2023-01-15T13:10:11.549Z,5.90
2023-01-15T13:15:17.970Z,4.30
2023-01-15T13:20:26.431Z,4.97
2023-01-15T13:25:43.872Z,5.60
2023-01-15T13:31:08.268Z,4.93
2023-01-15T13:36:19.414Z,4.60
2023-01-15T13:41:43.772Z,4.57
2023-01-15T13:46:48.095Z,5.27
2023-01-15T13:51:50.715Z,4.27
2023-01-15T13:56:53.193Z,4.87
2023-01-15T14:01:55.609Z,4.57
2023-01-15T14:07:00.923Z,4.73
2023-01-15T14:12:22.105Z,3.90
2023-01-15T14:17:46.126Z,4.27
2023-01-15T14:22:59.062Z,4.43
2023-01-15T14:28:27.009Z,3.27
2023-01-15T14:33:51.062Z,4.20
2023-01-15T14:38:57.428Z,5.20
2023-01-15T14:44:04.679Z,4.00
2023-01-15T14:49:28.997Z,4.97
2023-01-15T14:54:34.482Z,4.23
2023-01-15T14:59:36.775Z,3.60
2023-01-15T15:04:49.113Z,3.20
2023-01-15T15:10:11.456Z,3.60
2023-01-15T15:15:26.438Z,4.60
2023-01-15T15:20:49.030Z,3.53
2023-01-15T15:26:05.912Z,3.87
2023-01-15T15:31:09.911Z,3.33
2023-01-15T15:36:12.746Z,3.37
2023-01-15T15:41:15.185Z,4.53
2023-01-15T15:46:47.936Z,4.37
2023-01-15T15:51:52.465Z,4.37
2023-01-15T15:57:10.026Z,3.57
2023-01-15T16:02:18.711Z,3.87
2023-01-15T16:07:33.953Z,3.50
2023-01-15T16:12:44.207Z,3.43
2023-01-15T16:17:50.416Z,4.27
2023-01-15T16:23:05.537Z,4.07
2023-01-15T16:28:27.000Z,4.30
2023-01-15T16:33:32.275Z,3.70
2023-01-15T16:38:37.161Z,5.03
2023-01-15T16:44:14.936Z,5.17
2023-01-15T16:49:27.602Z,5.30
2023-01-15T16:54:30.194Z,6.47
2023-01-15T16:59:32.585Z,5.43
2023-01-15T17:04:37.720Z,5.33
2023-01-15T17:09:46.140Z,4.47
2023-01-15T17:14:48.448Z,5.20
2023-01-15T17:19:51.983Z,5.87
2023-01-15T17:24:56.707Z,5.73
2023-01-15T17:30:05.684Z,5.30
2023-01-15T17:35:23.273Z,5.87
2023-01-15T17:40:26.331Z,5.23
2023-01-15T17:45:30.749Z,5.97
2023-01-15T17:50:34.286Z,5.67
2023-01-15T17:55:55.145Z,5.20
2023-01-15T18:01:16.517Z,5.37
2023-01-15T18:06:24.894Z,4.70
2023-01-15T18:11:27.307Z,5.47
2023-01-15T18:16:30.476Z,5.17
2023-01-15T18:21:35.946Z,6.27
2023-01-15T18:26:39.997Z,6.50
2023-01-15T18:31:42.434Z,5.77
2023-01-15T18:36:44.941Z,5.57
2023-01-15T18:41:47.216Z,6.80
2023-01-15T18:46:52.846Z,5.57
2023-01-15T18:52:13.648Z,9.90
2023-01-15T18:57:16.917Z,5.67
2023-01-15T19:02:22.575Z,5.53
2023-01-15T19:07:25.000Z,6.17
2023-01-15T19:12:32.241Z,6.53
2023-01-15T19:17:54.374Z,5.73
2023-01-15T19:23:05.432Z,6.70
2023-01-15T19:28:11.217Z,5.50
2023-01-15T19:33:13.904Z,5.33
2023-01-15T19:38:16.862Z,5.63
2023-01-15T19:43:37.637Z,6.43
2023-01-15T19:48:59.444Z,6.13
2023-01-15T19:54:04.408Z,5.43
2023-01-15T19:59:09.907Z,6.37
2023-01-15T20:04:12.378Z,6.73
2023-01-15T20:09:15.318Z,6.90
2023-01-15T20:14:17.618Z,5.50
2023-01-15T20:19:19.967Z,6.03
2023-01-15T20:24:23.281Z,5.83
2023-01-15T20:29:25.711Z,6.40
2023-01-15T20:34:31.083Z,5.73
2023-01-15T20:39:33.455Z,5.23
2023-01-15T20:44:53.809Z,6.07
2023-01-15T20:49:56.112Z,5.67
2023-01-15T20:54:58.789Z,6.63
2023-01-15T21:00:01.378Z,8.13
2023-01-15T21:05:08.111Z,5.40
2023-01-15T21:10:12.321Z,5.27
2023-01-15T21:15:15.356Z,6.00
2023-01-15T21:20:17.941Z,5.40
2023-01-15T21:25:20.256Z,6.67
2023-01-15T21:30:25.948Z,5.53
2023-01-15T21:35:28.593Z,5.37
2023-01-15T21:40:30.855Z,6.03
2023-01-15T21:45:33.261Z,6.03
2023-01-15T21:50:37.597Z,5.53
2023-01-15T21:55:39.906Z,6.70
2023-01-15T22:00:43.311Z,5.40
2023-01-15T22:05:45.962Z,5.37
2023-01-15T22:10:48.334Z,6.27
2023-01-15T22:15:55.137Z,6.07
2023-01-15T22:21:02.422Z,6.63
2023-01-15T22:26:04.957Z,8.23
2023-01-15T22:31:07.526Z,5.67
2023-01-15T22:36:13.288Z,6.30
2023-01-15T22:41:15.564Z,6.77
2023-01-15T22:46:17.863Z,6.17
2023-01-15T22:51:20.174Z,6.60
2023-01-15T22:56:22.679Z,5.83
2023-01-15T23:01:25.071Z,7.03
2023-01-15T23:06:28.946Z,6.20
2023-01-15T23:11:31.288Z,5.77
2023-01-15T23:16:33.653Z,6.20
2023-01-15T23:21:36.150Z,6.70
2023-01-15T23:26:38.643Z,6.00
2023-01-15T23:31:41.070Z,5.67
2023-01-15T23:36:43.497Z,5.53
2023-01-15T23:42:04.316Z,5.83
2023-01-15T23:47:07.971Z,5.73
2023-01-15T23:52:10.448Z,5.97
2023-01-15T23:57:12.785Z,6.80
